sensor_id;sensor_type;location;lat;lon;timestamp;pressure;altitude;pressure_sealevel;temperature;humidity
70158;BME280;57524;48.312;7.938;2022-08-19T00:00:46;98937.97;;;20.25;77.93
70158;BME280;57524;48.312;7.938;2022-08-19T00:03:15;98944.16;;;20.26;78.00
70158;BME280;57524;48.312;7.938;2022-08-19T00:05:42;98940.63;;;20.25;77.89
70158;BME280;57524;48.312;7.938;2022-08-19T00:08:09;98935.38;;;20.24;77.90
70158;BME280;57524;48.312;7.938;2022-08-19T00:10:36;98921.91;;;20.25;77.84
70158;BME280;57524;48.312;7.938;2022-08-19T00:13:02;98922.84;;;20.24;77.32
70158;BME280;57524;48.312;7.938;2022-08-19T00:15:30;98923.81;;;20.23;77.37
70158;BME280;57524;48.312;7.938;2022-08-19T00:17:57;98920.38;;;20.21;77.43
70158;BME280;57524;48.312;7.938;2022-08-19T00:20:24;98934.53;;;20.23;77.49
70158;BME280;57524;48.312;7.938;2022-08-19T00:22:51;98936.22;;;20.24;77.19
70158;BME280;57524;48.312;7.938;2022-08-19T00:25:17;98929.94;;;20.25;77.32
70158;BME280;57524;48.312;7.938;2022-08-19T00:27:44;98939.66;;;20.26;77.91
70158;BME280;57524;48.312;7.938;2022-08-19T00:30:12;98936.03;;;20.27;77.53
70158;BME280;57524;48.312;7.938;2022-08-19T00:32:40;98936.97;;;20.26;77.25
70158;BME280;57524;48.312;7.938;2022-08-19T00:35:07;98936.97;;;20.26;78.34
70158;BME280;57524;48.312;7.938;2022-08-19T00:37:35;98934.53;;;20.23;77.70
70158;BME280;57524;48.312;7.938;2022-08-19T00:40:05;98931.31;;;20.18;77.90
70158;BME280;57524;48.312;7.938;2022-08-19T00:42:32;98920.81;;;20.15;78.19
70158;BME280;57524;48.312;7.938;2022-08-19T00:44:59;98921.03;;;20.12;78.72
70158;BME280;57524;48.312;7.938;2022-08-19T00:47:25;98930.88;;;20.11;78.36
70158;BME280;57524;48.312;7.938;2022-08-19T00:49:56;98925.41;;;20.13;78.10
70158;BME280;57524;48.312;7.938;2022-08-19T00:52:26;98923.47;;;20.15;77.67
70158;BME280;57524;48.312;7.938;2022-08-19T00:54:54;98924.47;;;20.14;77.98
70158;BME280;57524;48.312;7.938;2022-08-19T00:57:26;98927.88;;;20.16;77.71
70158;BME280;57524;48.312;7.938;2022-08-19T00:59:56;98927.66;;;20.19;78.69
70158;BME280;57524;48.312;7.938;2022-08-19T01:02:24;98918.78;;;20.19;78.05
70158;BME280;57524;48.312;7.938;2022-08-19T01:04:53;98927.66;;;20.19;77.87
70158;BME280;57524;48.312;7.938;2022-08-19T01:07:20;98925.97;;;20.18;77.98
70158;BME280;57524;48.312;7.938;2022-08-19T01:09:46;98924.47;;;20.14;77.91
70158;BME280;57524;48.312;7.938;2022-08-19T01:12:13;98924.66;;;20.11;78.21
70158;BME280;57524;48.312;7.938;2022-08-19T01:14:40;98916.84;;;20.08;77.94
70158;BME280;57524;48.312;7.938;2022-08-19T01:17:08;98925.09;;;20.05;78.21
70158;BME280;57524;48.312;7.938;2022-08-19T01:19:37;98918.00;;;20.04;78.89
70158;BME280;57524;48.312;7.938;2022-08-19T01:22:12;98921.44;;;20.06;78.33
70158;BME280;57524;48.312;7.938;2022-08-19T01:24:42;98914.25;;;20.06;78.62
70158;BME280;57524;48.312;7.938;2022-08-19T01:27:09;98911.72;;;20.05;79.21
70158;BME280;57524;48.312;7.938;2022-08-19T01:29:38;98916.19;;;20.04;79.25
70158;BME280;57524;48.312;7.938;2022-08-19T01:32:05;98919.75;;;20.05;78.88
70158;BME280;57524;48.312;7.938;2022-08-19T01:34:32;98909.88;;;20.05;78.38
70158;BME280;57524;48.312;7.938;2022-08-19T01:36:59;98909.03;;;20.05;78.32
70158;BME280;57524;48.312;7.938;2022-08-19T01:39:27;98915.00;;;20.08;78.33
70158;BME280;57524;48.312;7.938;2022-08-19T01:41:55;98919.41;;;20.09;78.35
70158;BME280;57524;48.312;7.938;2022-08-19T01:44:22;98913.22;;;20.09;78.19
70158;BME280;57524;48.312;7.938;2022-08-19T01:46:51;98914.91;;;20.10;77.92
70158;BME280;57524;48.312;7.938;2022-08-19T01:49:19;98908.81;;;20.08;78.09
70158;BME280;57524;48.312;7.938;2022-08-19T01:51:47;98905.38;;;20.06;78.15
70158;BME280;57524;48.312;7.938;2022-08-19T01:54:16;98904.75;;;20.02;78.23
70158;BME280;57524;48.312;7.938;2022-08-19T01:56:43;98902.94;;;20.03;78.54
70158;BME280;57524;48.312;7.938;2022-08-19T01:59:14;98903.69;;;20.05;78.16
70158;BME280;57524;48.312;7.938;2022-08-19T02:01:43;98900.03;;;20.06;78.42
70158;BME280;57524;48.312;7.938;2022-08-19T02:04:09;98895.53;;;20.06;78.16
70158;BME280;57524;48.312;7.938;2022-08-19T02:06:37;98882.38;;;20.03;78.29
70158;BME280;57524;48.312;7.938;2022-08-19T02:09:07;98874.66;;;19.99;78.27
70158;BME280;57524;48.312;7.938;2022-08-19T02:11:36;98868.97;;;19.90;78.93
70158;BME280;57524;48.312;7.938;2022-08-19T02:14:05;98880.22;;;19.96;78.33
70158;BME280;57524;48.312;7.938;2022-08-19T02:16:34;98881.19;;;19.94;78.50
70158;BME280;57524;48.312;7.938;2022-08-19T02:19:01;98893.38;;;19.99;78.47
70158;BME280;57524;48.312;7.938;2022-08-19T02:21:29;98902.16;;;20.01;78.14
70158;BME280;57524;48.312;7.938;2022-08-19T02:23:56;98901.31;;;20.00;78.05
70158;BME280;57524;48.312;7.938;2022-08-19T02:26:22;98908.28;;;20.03;77.76
70158;BME280;57524;48.312;7.938;2022-08-19T02:28:52;98909.13;;;20.03;78.08
70158;BME280;57524;48.312;7.938;2022-08-19T02:31:21;98905.78;;;20.00;78.62
70158;BME280;57524;48.312;7.938;2022-08-19T02:33:49;98907.72;;;19.98;79.22
70158;BME280;57524;48.312;7.938;2022-08-19T02:36:18;98906.22;;;19.93;78.84
70158;BME280;57524;48.312;7.938;2022-08-19T02:38:47;98904.50;;;19.92;79.05
70158;BME280;57524;48.312;7.938;2022-08-19T02:41:16;98906.44;;;19.90;78.81
70158;BME280;57524;48.312;7.938;2022-08-19T02:43:42;98902.13;;;19.88;78.67
70158;BME280;57524;48.312;7.938;2022-08-19T02:46:15;98900.31;;;19.88;78.94
70158;BME280;57524;48.312;7.938;2022-08-19T02:48:43;98896.25;;;19.83;78.58
70158;BME280;57524;48.312;7.938;2022-08-19T02:51:16;98892.50;;;19.85;79.06
70158;BME280;57524;48.312;7.938;2022-08-19T02:53:43;98902.06;;;19.89;78.54
70158;BME280;57524;48.312;7.938;2022-08-19T02:56:10;98909.09;;;19.90;78.85
70158;BME280;57524;48.312;7.938;2022-08-19T02:58:37;98904.50;;;19.92;78.12
70158;BME280;57524;48.312;7.938;2022-08-19T03:01:04;98913.50;;;19.91;78.93
70158;BME280;57524;48.312;7.938;2022-08-19T03:03:31;98904.72;;;19.89;78.77
70158;BME280;57524;48.312;7.938;2022-08-19T03:06:06;98908.56;;;19.85;78.66
70158;BME280;57524;48.312;7.938;2022-08-19T03:08:35;98890.81;;;19.84;78.98
70158;BME280;57524;48.312;7.938;2022-08-19T03:11:03;98905.66;;;19.88;79.02
70158;BME280;57524;48.312;7.938;2022-08-19T03:13:29;98901.28;;;19.87;78.78
70158;BME280;57524;48.312;7.938;2022-08-19T03:15:56;98907.50;;;19.88;78.12
70158;BME280;57524;48.312;7.938;2022-08-19T03:18:23;98917.13;;;19.90;78.40
70158;BME280;57524;48.312;7.938;2022-08-19T03:20:51;98915.44;;;19.89;78.57
70158;BME280;57524;48.312;7.938;2022-08-19T03:23:19;98925.91;;;19.92;78.17
70158;BME280;57524;48.312;7.938;2022-08-19T03:25:49;98919.63;;;19.93;77.99
70158;BME280;57524;48.312;7.938;2022-08-19T03:28:17;98916.94;;;19.93;78.68
70158;BME280;57524;48.312;7.938;2022-08-19T03:30:55;98933.00;;;19.93;78.39
70158;BME280;57524;48.312;7.938;2022-08-19T03:33:27;98932.34;;;19.90;77.96
70158;BME280;57524;48.312;7.938;2022-08-19T03:36:02;98943.69;;;19.93;78.25
70158;BME280;57524;48.312;7.938;2022-08-19T03:38:29;98952.66;;;19.92;78.38
70158;BME280;57524;48.312;7.938;2022-08-19T03:40:57;98945.63;;;19.91;77.75
70158;BME280;57524;48.312;7.938;2022-08-19T03:43:24;98947.31;;;19.92;77.85
70158;BME280;57524;48.312;7.938;2022-08-19T03:45:59;98933.19;;;19.90;78.57
70158;BME280;57524;48.312;7.938;2022-08-19T03:48:28;98930.50;;;19.90;78.61
70158;BME280;57524;48.312;7.938;2022-08-19T03:50:56;98922.69;;;19.87;78.92
70158;BME280;57524;48.312;7.938;2022-08-19T03:53:23;98929.75;;;19.88;78.20
70158;BME280;57524;48.312;7.938;2022-08-19T03:55:50;98931.47;;;19.89;78.02
70158;BME280;57524;48.312;7.938;2022-08-19T03:58:19;98944.66;;;19.92;77.90
70158;BME280;57524;48.312;7.938;2022-08-19T04:00:46;98959.75;;;19.93;77.58
70158;BME280;57524;48.312;7.938;2022-08-19T04:03:13;98960.59;;;19.94;76.99
70158;BME280;57524;48.312;7.938;2022-08-19T04:05:39;98958.88;;;19.93;77.36
70158;BME280;57524;48.312;7.938;2022-08-19T04:08:06;98959.75;;;19.93;77.31
70158;BME280;57524;48.312;7.938;2022-08-19T04:10:35;98952.88;;;19.89;77.28
70158;BME280;57524;48.312;7.938;2022-08-19T04:13:02;98954.06;;;19.85;77.67
70158;BME280;57524;48.312;7.938;2022-08-19T04:15:30;98955.03;;;19.84;77.27
70158;BME280;57524;48.312;7.938;2022-08-19T04:18:01;98959.63;;;19.82;77.29
70158;BME280;57524;48.312;7.938;2022-08-19T04:20:27;98962.28;;;19.82;77.60
70158;BME280;57524;48.312;7.938;2022-08-19T04:22:56;98962.28;;;19.82;77.52
70158;BME280;57524;48.312;7.938;2022-08-19T04:25:23;98961.41;;;19.82;77.68
70158;BME280;57524;48.312;7.938;2022-08-19T04:27:49;98970.09;;;19.85;77.82
70158;BME280;57524;48.312;7.938;2022-08-19T04:30:16;98967.44;;;19.85;77.61
70158;BME280;57524;48.312;7.938;2022-08-19T04:32:44;98973.00;;;19.82;77.34
70158;BME280;57524;48.312;7.938;2022-08-19T04:35:11;98967.06;;;19.77;77.28
70158;BME280;57524;48.312;7.938;2022-08-19T04:37:38;98965.16;;;19.79;77.17
70158;BME280;57524;48.312;7.938;2022-08-19T04:40:06;98962.47;;;19.79;77.76
70158;BME280;57524;48.312;7.938;2022-08-19T04:42:50;98950.06;;;19.78;77.37
70158;BME280;57524;48.312;7.938;2022-08-19T04:45:18;98958.94;;;19.79;77.23
70158;BME280;57524;48.312;7.938;2022-08-19T04:47:47;98946.56;;;19.78;77.71
70158;BME280;57524;48.312;7.938;2022-08-19T04:50:14;98954.44;;;19.79;77.17
70158;BME280;57524;48.312;7.938;2022-08-19T04:52:44;98955.22;;;19.81;76.75
70158;BME280;57524;48.312;7.938;2022-08-19T04:55:11;98955.22;;;19.81;76.69
70158;BME280;57524;48.312;7.938;2022-08-19T04:57:39;98965.91;;;19.81;77.48
70158;BME280;57524;48.312;7.938;2022-08-19T05:00:07;98966.88;;;19.80;77.12
70158;BME280;57524;48.312;7.938;2022-08-19T05:02:34;98971.25;;;19.81;76.91
70158;BME280;57524;48.312;7.938;2022-08-19T05:05:03;98969.56;;;19.80;77.20
70158;BME280;57524;48.312;7.938;2022-08-19T05:07:31;98968.91;;;19.77;77.35
70158;BME280;57524;48.312;7.938;2022-08-19T05:09:58;98984.09;;;19.76;77.16
70158;BME280;57524;48.312;7.938;2022-08-19T05:12:25;98980.88;;;19.71;77.02
70158;BME280;57524;48.312;7.938;2022-08-19T05:14:52;98980.66;;;19.74;77.03
70158;BME280;57524;48.312;7.938;2022-08-19T05:17:19;98986.00;;;19.74;77.90
70158;BME280;57524;48.312;7.938;2022-08-19T05:19:46;98989.66;;;19.73;77.77
70158;BME280;57524;48.312;7.938;2022-08-19T05:22:31;99004.53;;;19.77;77.52
70158;BME280;57524;48.312;7.938;2022-08-19T05:25:02;99006.03;;;19.81;76.88
70158;BME280;57524;48.312;7.938;2022-08-19T05:27:30;99001.66;;;19.80;77.23
70158;BME280;57524;48.312;7.938;2022-08-19T05:29:57;99003.38;;;19.81;77.34
70158;BME280;57524;48.312;7.938;2022-08-19T05:32:24;99012.38;;;19.80;77.34
70158;BME280;57524;48.312;7.938;2022-08-19T05:34:51;99019.44;;;19.81;76.78
70158;BME280;57524;48.312;7.938;2022-08-19T05:37:17;99021.16;;;19.82;77.08
70158;BME280;57524;48.312;7.938;2022-08-19T05:39:46;99021.34;;;19.79;77.01
70158;BME280;57524;48.312;7.938;2022-08-19T05:42:12;99019.63;;;19.78;77.31
70158;BME280;57524;48.312;7.938;2022-08-19T05:44:41;99014.28;;;19.78;76.85
70158;BME280;57524;48.312;7.938;2022-08-19T05:47:10;99008.09;;;19.78;77.30
70158;BME280;57524;48.312;7.938;2022-08-19T05:49:37;99007.88;;;19.81;76.65
70158;BME280;57524;48.312;7.938;2022-08-19T05:52:05;99007.78;;;19.82;77.10
70158;BME280;57524;48.312;7.938;2022-08-19T05:54:32;99008.53;;;19.84;77.09
70158;BME280;57524;48.312;7.938;2022-08-19T05:57:01;99010.25;;;19.85;77.21
70158;BME280;57524;48.312;7.938;2022-08-19T05:59:28;99017.09;;;19.89;76.50
70158;BME280;57524;48.312;7.938;2022-08-19T06:01:55;99016.91;;;19.92;76.13
70158;BME280;57524;48.312;7.938;2022-08-19T06:04:23;99032.78;;;19.96;76.72
70158;BME280;57524;48.312;7.938;2022-08-19T06:06:52;99037.91;;;19.99;77.10
70158;BME280;57524;48.312;7.938;2022-08-19T06:09:20;99034.25;;;20.00;76.91
70158;BME280;57524;48.312;7.938;2022-08-19T06:11:48;99041.34;;;20.01;76.37
70158;BME280;57524;48.312;7.938;2022-08-19T06:14:22;99038.75;;;19.99;77.10
70158;BME280;57524;48.312;7.938;2022-08-19T06:16:50;99048.59;;;19.99;75.89
70158;BME280;57524;48.312;7.938;2022-08-19T06:19:18;99044.41;;;19.94;76.23
70158;BME280;57524;48.312;7.938;2022-08-19T06:21:48;99057.59;;;19.98;76.83
70158;BME280;57524;48.312;7.938;2022-08-19T06:24:17;99059.31;;;19.99;76.72
70158;BME280;57524;48.312;7.938;2022-08-19T06:26:46;99057.72;;;19.96;76.95
70158;BME280;57524;48.312;7.938;2022-08-19T06:29:15;99059.53;;;19.96;75.84
70158;BME280;57524;48.312;7.938;2022-08-19T06:31:47;99056.84;;;19.96;76.63
70158;BME280;57524;48.312;7.938;2022-08-19T06:34:15;99060.25;;;19.98;76.63
70158;BME280;57524;48.312;7.938;2022-08-19T06:36:43;99053.22;;;19.97;77.15
70158;BME280;57524;48.312;7.938;2022-08-19T06:39:13;99055.66;;;20.00;76.38
70158;BME280;57524;48.312;7.938;2022-08-19T06:41:42;99052.03;;;20.01;76.34
70158;BME280;57524;48.312;7.938;2022-08-19T06:44:16;99058.91;;;20.05;75.74
70158;BME280;57524;48.312;7.938;2022-08-19T06:46:45;99060.63;;;20.06;75.88
70158;BME280;57524;48.312;7.938;2022-08-19T06:49:11;99064.28;;;20.05;76.38
70158;BME280;57524;48.312;7.938;2022-08-19T06:51:40;99062.53;;;20.04;75.76
70158;BME280;57524;48.312;7.938;2022-08-19T06:54:08;99067.03;;;20.03;76.81
70158;BME280;57524;48.312;7.938;2022-08-19T06:56:36;99060.25;;;19.98;77.30
70158;BME280;57524;48.312;7.938;2022-08-19T06:59:06;99065.59;;;19.98;77.34
70158;BME280;57524;48.312;7.938;2022-08-19T07:01:35;99074.53;;;19.98;77.58
70158;BME280;57524;48.312;7.938;2022-08-19T07:04:05;99069.81;;;20.02;77.35
70158;BME280;57524;48.312;7.938;2022-08-19T07:06:32;99068.75;;;20.04;76.58
70158;BME280;57524;48.312;7.938;2022-08-19T07:08:59;99071.31;;;20.06;77.24
70158;BME280;57524;48.312;7.938;2022-08-19T07:11:25;99070.56;;;20.04;76.95
70158;BME280;57524;48.312;7.938;2022-08-19T07:13:52;99063.81;;;19.98;78.26
70158;BME280;57524;48.312;7.938;2022-08-19T07:16:20;99066.81;;;19.93;78.26
70158;BME280;57524;48.312;7.938;2022-08-19T07:18:48;99060.47;;;19.94;77.65
70158;BME280;57524;48.312;7.938;2022-08-19T07:21:19;99066.59;;;19.97;78.34
70158;BME280;57524;48.312;7.938;2022-08-19T07:23:46;99064.88;;;19.96;78.11
70158;BME280;57524;48.312;7.938;2022-08-19T07:26:15;99055.66;;;20.00;77.76
70158;BME280;57524;48.312;7.938;2022-08-19T07:28:42;99054.72;;;20.01;77.62
70158;BME280;57524;48.312;7.938;2022-08-19T07:31:11;99058.69;;;20.08;77.17
70158;BME280;57524;48.312;7.938;2022-08-19T07:33:38;99063.84;;;20.11;77.08
70158;BME280;57524;48.312;7.938;2022-08-19T07:36:07;99058.31;;;20.14;76.92
70158;BME280;57524;48.312;7.938;2022-08-19T07:38:38;99063.44;;;20.17;77.22
70158;BME280;57524;48.312;7.938;2022-08-19T07:41:06;99059.81;;;20.18;77.17
70158;BME280;57524;48.312;7.938;2022-08-19T07:43:33;99061.31;;;20.22;76.86
70158;BME280;57524;48.312;7.938;2022-08-19T07:45:59;99053.09;;;20.25;76.62
70158;BME280;57524;48.312;7.938;2022-08-19T07:48:27;99046.56;;;20.29;76.79
70158;BME280;57524;48.312;7.938;2022-08-19T07:50:55;99048.06;;;20.33;76.59
70158;BME280;57524;48.312;7.938;2022-08-19T07:53:24;99046.13;;;20.35;76.34
70158;BME280;57524;48.312;7.938;2022-08-19T07:55:52;99053.00;;;20.40;75.92
70158;BME280;57524;48.312;7.938;2022-08-19T07:58:20;99047.47;;;20.43;76.11
70158;BME280;57524;48.312;7.938;2022-08-19T08:00:49;99037.38;;;20.46;76.14
70158;BME280;57524;48.312;7.938;2022-08-19T08:03:17;99046.59;;;20.55;75.93
70158;BME280;57524;48.312;7.938;2022-08-19T08:05:53;99054.25;;;20.61;76.16
70158;BME280;57524;48.312;7.938;2022-08-19T08:08:37;99053.28;;;20.62;75.94
70158;BME280;57524;48.312;7.938;2022-08-19T08:11:23;99056.72;;;20.64;75.30
70158;BME280;57524;48.312;7.938;2022-08-19T08:13:50;99054.78;;;20.66;75.14
70158;BME280;57524;48.312;7.938;2022-08-19T08:16:16;99061.66;;;20.70;75.13
70158;BME280;57524;48.312;7.938;2022-08-19T08:18:43;99070.47;;;20.72;74.82
70158;BME280;57524;48.312;7.938;2022-08-19T08:21:10;99070.47;;;20.72;74.88
70158;BME280;57524;48.312;7.938;2022-08-19T08:23:37;99065.94;;;20.73;74.46
70158;BME280;57524;48.312;7.938;2022-08-19T08:26:03;99076.44;;;20.76;73.72
70158;BME280;57524;48.312;7.938;2022-08-19T08:28:31;99079.78;;;20.80;74.58
70158;BME280;57524;48.312;7.938;2022-08-19T08:30:58;99082.25;;;20.83;73.50
70158;BME280;57524;48.312;7.938;2022-08-19T08:33:27;99092.97;;;20.83;73.52
70158;BME280;57524;48.312;7.938;2022-08-19T08:35:55;99087.41;;;20.86;74.09
70158;BME280;57524;48.312;7.938;2022-08-19T08:38:22;99096.19;;;20.88;73.27
70158;BME280;57524;48.312;7.938;2022-08-19T08:40:50;99108.44;;;20.92;72.95
70158;BME280;57524;48.312;7.938;2022-08-19T08:43:24;99099.19;;;20.96;72.95
70158;BME280;57524;48.312;7.938;2022-08-19T08:46:01;99107.13;;;20.97;73.26
70158;BME280;57524;48.312;7.938;2022-08-19T08:48:36;99107.78;;;21.01;72.72
70158;BME280;57524;48.312;7.938;2022-08-19T08:51:09;99106.72;;;21.04;73.07
70158;BME280;57524;48.312;7.938;2022-08-19T08:53:38;99107.34;;;21.07;73.42
70158;BME280;57524;48.312;7.938;2022-08-19T08:56:06;99100.28;;;21.06;72.91
70158;BME280;57524;48.312;7.938;2022-08-19T08:58:44;99115.06;;;21.12;72.81
70158;BME280;57524;48.312;7.938;2022-08-19T09:01:14;99115.94;;;21.12;72.39
70158;BME280;57524;48.312;7.938;2022-08-19T09:03:42;99115.94;;;21.12;72.84
70158;BME280;57524;48.312;7.938;2022-08-19T09:06:21;99117.66;;;21.13;72.57
70158;BME280;57524;48.312;7.938;2022-08-19T09:08:56;99120.84;;;21.18;72.26
70158;BME280;57524;48.312;7.938;2022-08-19T09:11:36;99121.50;;;21.22;72.42
70158;BME280;57524;48.312;7.938;2022-08-19T09:14:13;99122.38;;;21.23;71.65
70158;BME280;57524;48.312;7.938;2022-08-19T09:16:44;99127.41;;;21.27;72.45
70158;BME280;57524;48.312;7.938;2022-08-19T09:19:10;99136.94;;;21.31;72.52
70158;BME280;57524;48.312;7.938;2022-08-19T09:21:37;99133.00;;;21.37;72.35
70158;BME280;57524;48.312;7.938;2022-08-19T09:24:05;99137.19;;;21.41;71.71
70158;BME280;57524;48.312;7.938;2022-08-19T09:26:32;99130.78;;;21.44;71.58
70158;BME280;57524;48.312;7.938;2022-08-19T09:28:59;99134.31;;;21.44;70.83
70158;BME280;57524;48.312;7.938;2022-08-19T09:31:29;99136.00;;;21.45;70.48
70158;BME280;57524;48.312;7.938;2022-08-19T09:33:57;99129.22;;;21.52;69.52
70158;BME280;57524;48.312;7.938;2022-08-19T09:36:25;99128.81;;;21.58;69.98
70158;BME280;57524;48.312;7.938;2022-08-19T09:38:54;99125.91;;;21.62;69.38
70158;BME280;57524;48.312;7.938;2022-08-19T09:41:24;99128.13;;;21.68;69.23
70158;BME280;57524;48.312;7.938;2022-08-19T09:43:53;99129.44;;;21.75;69.37
70158;BME280;57524;48.312;7.938;2022-08-19T09:46:22;99126.19;;;21.83;69.33
70158;BME280;57524;48.312;7.938;2022-08-19T09:48:50;99136.47;;;21.89;69.58
70158;BME280;57524;48.312;7.938;2022-08-19T09:51:20;99137.84;;;21.94;68.86
70158;BME280;57524;48.312;7.938;2022-08-19T09:53:47;99144.19;;;21.93;68.33
70158;BME280;57524;48.312;7.938;2022-08-19T09:56:17;99140.78;;;21.91;67.44
70158;BME280;57524;48.312;7.938;2022-08-19T09:58:45;99144.63;;;21.87;66.99
70158;BME280;57524;48.312;7.938;2022-08-19T10:01:16;99140.97;;;21.88;67.58
70158;BME280;57524;48.312;7.938;2022-08-19T10:03:47;99144.41;;;21.90;68.00
70158;BME280;57524;48.312;7.938;2022-08-19T10:06:14;99144.19;;;21.93;68.11
70158;BME280;57524;48.312;7.938;2022-08-19T10:08:43;99139.56;;;21.95;67.95
70158;BME280;57524;48.312;7.938;2022-08-19T10:11:09;99142.25;;;21.95;68.17
70158;BME280;57524;48.312;7.938;2022-08-19T10:13:36;99138.41;;;21.99;67.78
70158;BME280;57524;48.312;7.938;2022-08-19T10:16:06;99134.28;;;22.07;67.70
70158;BME280;57524;48.312;7.938;2022-08-19T10:18:35;99146.28;;;22.14;68.07
70158;BME280;57524;48.312;7.938;2022-08-19T10:21:06;99142.41;;;22.18;68.25
70158;BME280;57524;48.312;7.938;2022-08-19T10:23:36;99143.03;;;22.21;67.42
70158;BME280;57524;48.312;7.938;2022-08-19T10:26:06;99136.78;;;22.21;67.20
70158;BME280;57524;48.312;7.938;2022-08-19T10:28:33;99147.03;;;22.29;66.89
70158;BME280;57524;48.312;7.938;2022-08-19T10:31:07;99140.66;;;22.30;66.92
70158;BME280;57524;48.312;7.938;2022-08-19T10:33:35;99137.22;;;22.28;66.33
70158;BME280;57524;48.312;7.938;2022-08-19T10:36:04;99136.13;;;22.30;67.16
70158;BME280;57524;48.312;7.938;2022-08-19T10:38:31;99146.88;;;22.30;66.87
70158;BME280;57524;48.312;7.938;2022-08-19T10:41:08;99144.94;;;22.32;67.17
70158;BME280;57524;48.312;7.938;2022-08-19T10:43:34;99141.31;;;22.33;67.18
70158;BME280;57524;48.312;7.938;2022-08-19T10:46:04;99141.31;;;22.33;66.69
70158;BME280;57524;48.312;7.938;2022-08-19T10:48:31;99139.56;;;22.32;66.76
70158;BME280;57524;48.312;7.938;2022-08-19T10:50:58;99139.56;;;22.32;66.51
70158;BME280;57524;48.312;7.938;2022-08-19T10:53:42;99134.19;;;22.32;66.73
70158;BME280;57524;48.312;7.938;2022-08-19T10:56:10;99135.94;;;22.33;66.73
70158;BME280;57524;48.312;7.938;2022-08-19T10:58:54;99132.38;;;22.33;66.41
70158;BME280;57524;48.312;7.938;2022-08-19T11:01:21;99124.44;;;22.31;66.41
70158;BME280;57524;48.312;7.938;2022-08-19T11:03:48;99128.81;;;22.32;66.33
70158;BME280;57524;48.312;7.938;2022-08-19T11:06:15;99119.81;;;22.33;66.57
70158;BME280;57524;48.312;7.938;2022-08-19T11:08:42;99123.25;;;22.35;66.65
70158;BME280;57524;48.312;7.938;2022-08-19T11:11:12;99128.38;;;22.38;66.26
70158;BME280;57524;48.312;7.938;2022-08-19T11:13:40;99124.69;;;22.39;66.63
70158;BME280;57524;48.312;7.938;2022-08-19T11:16:11;99124.69;;;22.39;66.26
70158;BME280;57524;48.312;7.938;2022-08-19T11:18:40;99128.63;;;22.35;66.24
70158;BME280;57524;48.312;7.938;2022-08-19T11:21:10;99138.38;;;22.36;66.07
70158;BME280;57524;48.312;7.938;2022-08-19T11:23:37;99125.94;;;22.35;66.44
70158;BME280;57524;48.312;7.938;2022-08-19T11:26:04;99131.81;;;22.40;66.91
70158;BME280;57524;48.312;7.938;2022-08-19T11:28:32;99131.56;;;22.44;66.02
70158;BME280;57524;48.312;7.938;2022-08-19T11:30:59;99136.72;;;22.47;66.32
70158;BME280;57524;48.312;7.938;2022-08-19T11:33:25;99129.16;;;22.52;65.89
70158;BME280;57524;48.312;7.938;2022-08-19T11:35:52;99136.03;;;22.56;65.59
70158;BME280;57524;48.312;7.938;2022-08-19T11:38:19;99126.75;;;22.60;65.65
70158;BME280;57524;48.312;7.938;2022-08-19T11:40:54;99127.13;;;22.67;65.37
70158;BME280;57524;48.312;7.938;2022-08-19T11:43:20;99109.69;;;22.72;65.02
70158;BME280;57524;48.312;7.938;2022-08-19T11:45:48;99118.25;;;22.77;64.85
70158;BME280;57524;48.312;7.938;2022-08-19T11:48:15;99119.28;;;22.88;64.55
70158;BME280;57524;48.312;7.938;2022-08-19T11:50:42;99120.50;;;22.95;64.59
70158;BME280;57524;48.312;7.938;2022-08-19T11:53:09;99123.50;;;23.03;64.99
70158;BME280;57524;48.312;7.938;2022-08-19T11:55:37;99119.09;;;23.13;64.66
70158;BME280;57524;48.312;7.938;2022-08-19T11:58:04;99126.59;;;23.21;64.32
70158;BME280;57524;48.312;7.938;2022-08-19T12:00:33;99117.31;;;23.25;63.87
70158;BME280;57524;48.312;7.938;2022-08-19T12:03:02;99125.13;;;23.28;63.74
70158;BME280;57524;48.312;7.938;2022-08-19T12:05:28;99118.75;;;23.29;63.52
70158;BME280;57524;48.312;7.938;2022-08-19T12:07:55;99123.28;;;23.29;63.37
70158;BME280;57524;48.312;7.938;2022-08-19T12:10:23;99117.66;;;23.32;63.06
70158;BME280;57524;48.312;7.938;2022-08-19T12:12:49;99110.56;;;23.31;62.91
70158;BME280;57524;48.312;7.938;2022-08-19T12:15:16;99113.50;;;23.39;62.69
70158;BME280;57524;48.312;7.938;2022-08-19T12:17:43;99114.72;;;23.46;61.75
70158;BME280;57524;48.312;7.938;2022-08-19T12:20:12;99107.88;;;23.53;60.38
70158;BME280;57524;48.312;7.938;2022-08-19T12:22:41;99110.69;;;23.63;59.95
70158;BME280;57524;48.312;7.938;2022-08-19T12:25:09;99108.13;;;23.73;59.84
70158;BME280;57524;48.312;7.938;2022-08-19T12:27:37;99105.44;;;23.84;60.19
70158;BME280;57524;48.312;7.938;2022-08-19T12:30:06;99106.88;;;23.99;60.32
70158;BME280;57524;48.312;7.938;2022-08-19T12:32:33;99102.44;;;24.10;60.99
70158;BME280;57524;48.312;7.938;2022-08-19T12:35:00;99106.22;;;24.18;60.34
70158;BME280;57524;48.312;7.938;2022-08-19T12:37:28;99108.03;;;24.29;59.56
70158;BME280;57524;48.312;7.938;2022-08-19T12:39:55;99112.03;;;24.35;59.43
70158;BME280;57524;48.312;7.938;2022-08-19T12:42:21;99107.59;;;24.45;59.35
70158;BME280;57524;48.312;7.938;2022-08-19T12:44:48;99105.72;;;24.57;58.93
70158;BME280;57524;48.312;7.938;2022-08-19T12:47:16;99105.50;;;24.60;58.56
70158;BME280;57524;48.312;7.938;2022-08-19T12:49:43;99107.19;;;24.61;57.92
70158;BME280;57524;48.312;7.938;2022-08-19T12:52:12;99094.31;;;24.64;57.51
70158;BME280;57524;48.312;7.938;2022-08-19T12:54:42;99093.91;;;24.69;57.27
70158;BME280;57524;48.312;7.938;2022-08-19T12:57:10;99090.59;;;24.86;56.97
70158;BME280;57524;48.312;7.938;2022-08-19T12:59:38;99095.75;;;24.89;57.03
70158;BME280;57524;48.312;7.938;2022-08-19T13:02:06;99098.66;;;24.98;55.13
70158;BME280;57524;48.312;7.938;2022-08-19T13:04:34;99092.72;;;25.04;54.56
70158;BME280;57524;48.312;7.938;2022-08-19T13:07:03;99092.91;;;25.12;54.86